Time;durP1;ratioP1;P1;durP2;ratioP2;P2;SDS_P1;SDS_P2;PMS_P1;PMS_P2;Temp;Humidity;BMP_temperature;BMP_pressure;BME280_temperature;BME280_humidity;BME280_pressure;Samples;Min_cycle;Max_cycle;Signal;HPM_P1;HPM_P2
2021/05/17 00:00:27;;;;;;;11.00;8.82;;;;;;;;;;2056027;28;20186;-50
2021/05/17 00:01:31;;;;;;;9.07;8.27;;;;;;;;;;2055478;28;20185;-50
2021/05/17 00:02:31;;;;;;;11.52;8.70;;;;;;;;;;2056262;28;20190;-51
2021/05/17 00:03:32;;;;;;;10.20;8.73;;;;;;;;;;2047962;28;20179;-50
2021/05/17 00:04:34;;;;;;;10.20;8.15;;;;;;;;;;2047345;29;20265;-52
2021/05/17 00:05:34;;;;;;;9.75;8.65;;;;;;;;;;2051364;28;20187;-49
2021/05/17 00:06:34;;;;;;;10.15;9.13;;;;;;;;;;2054357;28;20174;-50
2021/05/17 00:07:36;;;;;;;11.90;8.63;;;;;;;;;;2056886;28;20174;-52
2021/05/17 00:08:36;;;;;;;9.57;8.60;;;;;;;;;;2055914;28;20244;-53
2021/05/17 00:09:37;;;;;;;11.30;8.93;;;;;;;;;;2047342;29;20669;-50
2021/05/17 00:10:37;;;;;;;10.02;8.85;;;;;;;;;;2047583;29;20182;-50
2021/05/17 00:11:38;;;;;;;10.18;9.18;;;;;;;;;;2057154;28;20181;-47
2021/05/17 00:12:38;;;;;;;11.68;8.93;;;;;;;;;;2046497;28;20312;-50
2021/05/17 00:13:38;;;;;;;13.10;8.80;;;;;;;;;;2048307;29;20556;-49
2021/05/17 00:14:39;;;;;;;9.82;8.93;;;;;;;;;;2056067;28;20175;-47
2021/05/17 00:15:40;;;;;;;12.70;10.80;;;;;;;;;;2055362;28;20181;-49
2021/05/17 00:16:40;;;;;;;16.27;10.45;;;;;;;;;;2056764;28;20182;-52
2021/05/17 00:17:41;;;;;;;10.57;9.52;;;;;;;;;;2056520;28;20181;-53
2021/05/17 00:18:41;;;;;;;11.10;9.68;;;;;;;;;;2048576;29;20178;-50
2021/05/17 00:19:41;;;;;;;12.93;10.73;;;;;;;;;;2048330;29;20282;-52
2021/05/17 00:20:42;;;;;;;14.65;10.02;;;;;;;;;;2057271;28;20224;-53
2021/05/17 00:21:43;;;;;;;14.45;10.70;;;;;;;;;;2057474;28;20236;-56
2021/05/17 00:22:44;;;;;;;11.75;10.48;;;;;;;;;;2057459;28;20194;-51
2021/05/17 00:23:44;;;;;;;11.90;10.68;;;;;;;;;;2057380;28;20249;-53
2021/05/17 00:24:45;;;;;;;11.75;10.23;;;;;;;;;;2057209;28;20201;-51
2021/05/17 00:25:45;;;;;;;12.00;10.65;;;;;;;;;;2057264;28;20177;-52
2021/05/17 00:26:46;;;;;;;11.90;10.65;;;;;;;;;;2056829;28;20303;-51
2021/05/17 00:27:46;;;;;;;12.98;11.20;;;;;;;;;;2056211;28;20182;-50
2021/05/17 00:28:47;;;;;;;13.35;11.25;;;;;;;;;;2057457;28;20193;-49
2021/05/17 00:29:47;;;;;;;14.48;11.73;;;;;;;;;;2057013;28;20662;-50
2021/05/17 00:30:47;;;;;;;16.23;11.15;;;;;;;;;;2056744;28;20173;-50
2021/05/17 00:31:48;;;;;;;13.70;11.55;;;;;;;;;;2056544;28;20217;-51
2021/05/17 00:32:48;;;;;;;13.02;11.60;;;;;;;;;;2049421;28;20262;-54
2021/05/17 00:33:49;;;;;;;13.80;11.70;;;;;;;;;;2050619;29;20209;-49
2021/05/17 00:34:49;;;;;;;15.18;12.30;;;;;;;;;;2058544;28;20194;-51
2021/05/17 00:35:50;;;;;;;14.60;12.32;;;;;;;;;;2057659;28;20178;-54
2021/05/17 00:36:51;;;;;;;14.02;12.57;;;;;;;;;;2057654;28;20257;-50
2021/05/17 00:37:51;;;;;;;16.40;13.02;;;;;;;;;;2048423;29;20569;-50
2021/05/17 00:38:52;;;;;;;18.38;14.77;;;;;;;;;;2048643;29;20167;-52
2021/05/17 00:39:52;;;;;;;20.05;14.30;;;;;;;;;;2050499;28;20273;-52
2021/05/17 00:40:53;;;;;;;18.15;13.18;;;;;;;;;;2049916;28;20175;-56
2021/05/17 00:41:54;;;;;;;16.33;12.65;;;;;;;;;;2057476;28;20202;-51
2021/05/17 00:42:54;;;;;;;16.27;12.65;;;;;;;;;;2057353;28;20194;-50
2021/05/17 00:43:55;;;;;;;13.88;12.32;;;;;;;;;;2056979;28;20168;-52
2021/05/17 00:44:55;;;;;;;15.90;12.23;;;;;;;;;;2050732;28;20788;-52
2021/05/17 00:45:56;;;;;;;15.25;11.80;;;;;;;;;;2049370;29;20179;-48
2021/05/17 00:46:56;;;;;;;15.70;13.02;;;;;;;;;;2040671;29;20259;-52
2021/05/17 00:47:57;;;;;;;12.55;11.25;;;;;;;;;;2040622;29;20599;-50
2021/05/17 00:48:57;;;;;;;16.85;11.35;;;;;;;;;;2049297;28;20530;-50
2021/05/17 00:49:57;;;;;;;12.70;11.43;;;;;;;;;;2049255;28;20177;-53
2021/05/17 00:50:58;;;;;;;15.57;12.48;;;;;;;;;;2050256;28;20739;-51
2021/05/17 00:51:59;;;;;;;15.35;12.23;;;;;;;;;;2048636;29;20183;-50
2021/05/17 00:52:59;;;;;;;13.80;11.75;;;;;;;;;;2048547;29;20318;-51
2021/05/17 00:54:00;;;;;;;13.65;12.20;;;;;;;;;;2056171;28;20261;-54
2021/05/17 00:55:00;;;;;;;12.93;11.73;;;;;;;;;;2048405;28;20171;-53
2021/05/17 00:56:01;;;;;;;13.75;12.00;;;;;;;;;;2048840;29;20669;-54
2021/05/17 00:57:02;;;;;;;13.25;11.95;;;;;;;;;;2056351;28;20189;-53
2021/05/17 00:58:02;;;;;;;14.30;12.80;;;;;;;;;;2048275;28;20673;-52
2021/05/17 00:59:03;;;;;;;16.27;12.30;;;;;;;;;;2045173;29;20194;-50
2021/05/17 01:00:04;;;;;;;14.73;12.07;;;;;;;;;;2052339;28;20186;-51
2021/05/17 01:01:08;;;;;;;14.15;12.60;;;;;;;;;;2052308;28;20208;-53
2021/05/17 01:02:08;;;;;;;12.35;11.13;;;;;;;;;;2053339;28;20590;-55
2021/05/17 01:03:27;;;;;;;13.90;12.15;;;;;;;;;;2054793;28;20186;-53
2021/05/17 01:04:30;;;;;;;15.18;12.80;;;;;;;;;;2053200;28;20190;-53
2021/05/17 01:05:31;;;;;;;13.00;11.70;;;;;;;;;;2047431;28;20215;-50
2021/05/17 01:06:32;;;;;;;14.50;12.65;;;;;;;;;;2046952;29;20180;-50
2021/05/17 01:07:35;;;;;;;16.80;13.13;;;;;;;;;;2055226;28;20905;-50
2021/05/17 01:08:58;;;;;;;13.93;12.40;;;;;;;;;;2055669;28;20196;-54
2021/05/17 01:09:59;;;;;;;16.33;12.65;;;;;;;;;;2043211;28;20586;-53
2021/05/17 01:11:02;;;;;;;15.88;12.98;;;;;;;;;;2055748;28;20179;-54
2021/05/17 01:12:04;;;;;;;15.75;13.95;;;;;;;;;;2055051;28;20186;-53
2021/05/17 01:13:06;;;;;;;17.52;14.35;;;;;;;;;;2056270;28;20217;-55
2021/05/17 01:14:08;;;;;;;16.55;13.27;;;;;;;;;;2050695;28;20189;-57
2021/05/17 01:15:12;;;;;;;15.68;13.95;;;;;;;;;;2056138;28;20618;-52
2021/05/17 01:16:13;;;;;;;16.10;13.63;;;;;;;;;;2042753;28;20242;-55
2021/05/17 01:17:15;;;;;;;19.85;14.68;;;;;;;;;;2048040;28;20242;-53
2021/05/17 01:18:15;;;;;;;17.00;15.20;;;;;;;;;;2055028;28;20727;-55
2021/05/17 01:19:19;;;;;;;16.63;14.88;;;;;;;;;;2051184;28;20214;-50
2021/05/17 01:20:26;;;;;;;18.02;14.88;;;;;;;;;;2056113;28;20182;-54
2021/05/17 01:21:32;;;;;;;21.30;15.20;;;;;;;;;;2044192;29;20219;-48
2021/05/17 01:23:01;;;;;;;19.42;15.98;;;;;;;;;;2040445;29;20278;-51
2021/05/17 01:24:05;;;;;;;19.30;15.77;;;;;;;;;;2049760;28;20261;-51
2021/05/17 01:25:06;;;;;;;19.38;15.18;;;;;;;;;;2055686;28;20182;-52
2021/05/17 01:26:06;;;;;;;19.42;16.48;;;;;;;;;;2049446;28;20179;-54
2021/05/17 01:27:07;;;;;;;20.05;16.75;;;;;;;;;;2055384;28;20218;-52
2021/05/17 01:28:19;;;;;;;20.25;15.82;;;;;;;;;;2047756;28;20186;-52
2021/05/17 01:29:19;;;;;;;22.40;16.40;;;;;;;;;;2048007;28;20175;-50
2021/05/17 01:30:21;;;;;;;18.95;15.82;;;;;;;;;;2056670;28;20181;-53
2021/05/17 01:31:22;;;;;;;21.23;17.63;;;;;;;;;;2055417;28;20178;-51
2021/05/17 01:32:23;;;;;;;24.48;17.85;;;;;;;;;;2056759;28;20205;-51
2021/05/17 01:33:23;;;;;;;19.92;16.95;;;;;;;;;;2047758;28;20849;-51
2021/05/17 01:34:24;;;;;;;22.42;18.70;;;;;;;;;;2049654;29;20179;-55
2021/05/17 01:35:24;;;;;;;22.88;18.33;;;;;;;;;;2055459;28;20205;-51
2021/05/17 01:36:25;;;;;;;23.23;18.08;;;;;;;;;;2057801;28;20162;-51
2021/05/17 01:37:28;;;;;;;22.92;20.08;;;;;;;;;;2055320;28;20182;-49
2021/05/17 01:38:29;;;;;;;28.30;20.98;;;;;;;;;;2049367;28;20185;-48
2021/05/17 01:39:29;;;;;;;27.40;21.50;;;;;;;;;;2045880;29;20246;-49
2021/05/17 01:40:31;;;;;;;26.25;21.40;;;;;;;;;;2053958;28;20166;-49
2021/05/17 01:41:34;;;;;;;29.15;23.85;;;;;;;;;;2055528;28;20178;-51
2021/05/17 01:42:39;;;;;;;30.10;22.65;;;;;;;;;;2056060;28;20193;-52
2021/05/17 01:43:41;;;;;;;32.65;24.02;;;;;;;;;;2056605;28;20262;-50
2021/05/17 01:44:42;;;;;;;28.02;23.70;;;;;;;;;;2055519;28;20182;-51
2021/05/17 01:45:42;;;;;;;32.17;24.08;;;;;;;;;;2056143;28;20167;-51
2021/05/17 01:46:44;;;;;;;32.92;24.23;;;;;;;;;;2054640;28;20560;-55
2021/05/17 01:47:46;;;;;;;34.65;24.98;;;;;;;;;;2056660;28;20182;-52
2021/05/17 01:48:47;;;;;;;32.60;24.23;;;;;;;;;;2049680;29;20193;-56
2021/05/17 01:49:50;;;;;;;32.42;23.10;;;;;;;;;;2049198;28;20182;-50
2021/05/17 01:50:50;;;;;;;31.27;24.45;;;;;;;;;;2050043;28;20175;-51
2021/05/17 01:51:51;;;;;;;30.77;23.42;;;;;;;;;;2049223;29;20185;-50
2021/05/17 01:52:52;;;;;;;29.20;21.58;;;;;;;;;;2042055;29;20226;-51
2021/05/17 01:53:54;;;;;;;29.80;22.40;;;;;;;;;;2050429;29;20167;-51
2021/05/17 01:54:56;;;;;;;27.50;21.05;;;;;;;;;;2057087;28;20178;-48
2021/05/17 01:55:57;;;;;;;23.23;19.02;;;;;;;;;;2058424;28;20174;-49
2021/05/17 01:56:57;;;;;;;22.92;19.10;;;;;;;;;;2057770;28;20269;-54
2021/05/17 01:58:05;;;;;;;22.60;19.27;;;;;;;;;;2057350;28;20630;-54
2021/05/17 01:59:06;;;;;;;24.05;19.27;;;;;;;;;;2046824;29;20247;-52
2021/05/17 02:00:07;;;;;;;27.27;20.80;;;;;;;;;;2041795;29;20184;-50
2021/05/17 02:01:15;;;;;;;25.45;19.70;;;;;;;;;;2051419;28;20164;-51
2021/05/17 02:02:15;;;;;;;24.30;19.48;;;;;;;;;;2057506;28;20749;-54
2021/05/17 02:03:16;;;;;;;23.13;19.20;;;;;;;;;;2057798;28;20222;-53
2021/05/17 02:04:17;;;;;;;31.10;21.30;;;;;;;;;;2055922;28;20183;-53
2021/05/17 02:05:17;;;;;;;27.42;20.98;;;;;;;;;;2042010;29;20172;-51
2021/05/17 02:06:18;;;;;;;28.48;21.35;;;;;;;;;;2041947;29;20176;-52
2021/05/17 02:07:20;;;;;;;25.65;21.33;;;;;;;;;;2050274;29;20163;-51
2021/05/17 02:08:21;;;;;;;30.45;22.50;;;;;;;;;;2049715;29;20653;-50
2021/05/17 02:09:30;;;;;;;27.27;21.50;;;;;;;;;;2050682;28;20168;-51
2021/05/17 02:10:32;;;;;;;27.23;22.35;;;;;;;;;;2053408;28;20656;-50
2021/05/17 02:11:34;;;;;;;30.63;22.88;;;;;;;;;;2057024;28;20261;-49
2021/05/17 02:12:49;;;;;;;31.55;22.75;;;;;;;;;;2048462;28;20210;-53
2021/05/17 02:13:50;;;;;;;30.35;22.83;;;;;;;;;;2039835;29;20184;-51
2021/05/17 02:14:52;;;;;;;26.33;21.70;;;;;;;;;;2043353;29;20188;-55
2021/05/17 02:15:52;;;;;;;29.10;22.48;;;;;;;;;;2048812;29;20173;-52
2021/05/17 02:16:53;;;;;;;28.23;23.55;;;;;;;;;;2049551;28;20596;-51
2021/05/17 02:18:01;;;;;;;30.40;22.70;;;;;;;;;;2056963;28;20170;-48
2021/05/17 02:19:03;;;;;;;27.45;22.77;;;;;;;;;;2055700;28;20191;-51
2021/05/17 02:20:04;;;;;;;29.40;21.98;;;;;;;;;;2056879;28;20175;-51
2021/05/17 02:21:15;;;;;;;29.52;22.77;;;;;;;;;;2053817;28;20174;-54
2021/05/17 02:22:17;;;;;;;26.95;22.02;;;;;;;;;;2057063;28;20202;-53
2021/05/17 02:23:27;;;;;;;25.92;20.83;;;;;;;;;;2059012;28;20174;-57
2021/05/17 02:24:29;;;;;;;28.20;21.88;;;;;;;;;;2059132;28;20193;-55
2021/05/17 02:25:29;;;;;;;30.45;21.65;;;;;;;;;;2057227;28;20186;-50
2021/05/17 02:26:33;;;;;;;28.23;22.75;;;;;;;;;;2058926;28;20249;-54
2021/05/17 02:27:34;;;;;;;26.58;21.42;;;;;;;;;;2055383;28;20178;-49
2021/05/17 02:28:38;;;;;;;26.25;21.83;;;;;;;;;;2058186;28;20174;-50
2021/05/17 02:29:39;;;;;;;28.95;23.02;;;;;;;;;;2046793;28;20752;-50
2021/05/17 02:30:40;;;;;;;27.77;21.98;;;;;;;;;;2047418;29;20178;-54
2021/05/17 02:31:40;;;;;;;28.90;21.58;;;;;;;;;;2057185;28;20170;-50
2021/05/17 02:32:41;;;;;;;24.30;20.25;;;;;;;;;;2054415;28;20198;-50
2021/05/17 02:33:45;;;;;;;23.58;19.83;;;;;;;;;;2055914;28;20668;-51
2021/05/17 02:34:45;;;;;;;24.02;19.55;;;;;;;;;;2044210;28;20171;-50
2021/05/17 02:35:46;;;;;;;24.42;20.20;;;;;;;;;;2044282;29;20212;-53
2021/05/17 02:36:48;;;;;;;23.60;18.65;;;;;;;;;;2049007;29;20187;-50
2021/05/17 02:37:49;;;;;;;23.33;19.85;;;;;;;;;;2048858;29;20175;-50
2021/05/17 02:38:49;;;;;;;22.98;19.05;;;;;;;;;;2057558;28;20197;-50
2021/05/17 02:39:51;;;;;;;21.73;17.52;;;;;;;;;;2057057;28;20166;-54
2021/05/17 02:40:52;;;;;;;23.52;19.92;;;;;;;;;;2048623;29;20179;-51
2021/05/17 02:41:54;;;;;;;24.13;20.13;;;;;;;;;;2057197;28;20732;-53
2021/05/17 02:43:02;;;;;;;20.50;17.63;;;;;;;;;;2058177;28;20581;-50
2021/05/17 02:44:11;;;;;;;20.60;18.23;;;;;;;;;;2057090;28;20170;-55
2021/05/17 02:45:13;;;;;;;24.30;18.95;;;;;;;;;;2049028;28;20206;-50
2021/05/17 02:46:13;;;;;;;25.92;20.42;;;;;;;;;;2049493;28;20296;-51
2021/05/17 02:47:19;;;;;;;22.20;19.10;;;;;;;;;;2049202;29;20595;-51
2021/05/17 02:48:26;;;;;;;22.13;18.35;;;;;;;;;;2049016;29;20183;-50
2021/05/17 02:49:30;;;;;;;21.20;18.58;;;;;;;;;;2057807;28;20174;-50
2021/05/17 02:50:32;;;;;;;23.88;18.73;;;;;;;;;;2058033;28;20305;-50
2021/05/17 02:51:33;;;;;;;19.52;17.25;;;;;;;;;;2058203;28;20185;-50
2021/05/17 02:52:33;;;;;;;21.85;18.45;;;;;;;;;;2058577;28;20197;-53
2021/05/17 02:53:37;;;;;;;20.48;16.55;;;;;;;;;;2059277;28;20197;-49
2021/05/17 02:54:41;;;;;;;20.15;17.63;;;;;;;;;;2053633;28;20861;-50
2021/05/17 02:55:41;;;;;;;23.77;18.17;;;;;;;;;;2057559;28;20229;-51
2021/05/17 02:57:01;;;;;;;20.15;17.92;;;;;;;;;;2049334;29;20213;-51
2021/05/17 02:58:06;;;;;;;25.52;19.15;;;;;;;;;;2051881;28;20159;-51
2021/05/17 02:59:07;;;;;;;22.85;17.90;;;;;;;;;;2054185;28;20178;-50
2021/05/17 03:00:17;;;;;;;23.65;19.05;;;;;;;;;;2055560;28;20169;-51
2021/05/17 03:01:25;;;;;;;22.13;18.75;;;;;;;;;;2054961;28;20182;-51
2021/05/17 03:02:28;;;;;;;25.00;20.08;;;;;;;;;;2041304;29;20267;-53
2021/05/17 03:03:30;;;;;;;20.70;18.48;;;;;;;;;;2041768;29;20234;-51
2021/05/17 03:04:37;;;;;;;23.92;19.23;;;;;;;;;;2050311;28;20170;-51
2021/05/17 03:05:42;;;;;;;22.83;19.55;;;;;;;;;;2050556;28;20201;-54
2021/05/17 03:07:13;;;;;;;24.02;18.63;;;;;;;;;;2048117;28;20179;-51
2021/05/17 03:08:15;;;;;;;23.65;20.20;;;;;;;;;;2053468;28;20200;-51
2021/05/17 03:09:15;;;;;;;26.10;20.35;;;;;;;;;;2053716;28;20175;-51
2021/05/17 03:10:19;;;;;;;25.38;21.02;;;;;;;;;;2047799;29;20178;-54
2021/05/17 03:11:21;;;;;;;25.17;21.20;;;;;;;;;;2046276;28;20179;-51
2021/05/17 03:12:22;;;;;;;26.92;19.95;;;;;;;;;;2057192;28;20246;-52
2021/05/17 03:13:23;;;;;;;27.40;22.13;;;;;;;;;;2047688;28;20185;-55
2021/05/17 03:14:24;;;;;;;28.70;22.70;;;;;;;;;;2044802;29;20179;-50
2021/05/17 03:15:31;;;;;;;26.58;21.30;;;;;;;;;;2056993;28;20253;-53
2021/05/17 03:16:32;;;;;;;26.88;22.05;;;;;;;;;;2057364;28;20174;-53
2021/05/17 03:17:33;;;;;;;26.85;22.88;;;;;;;;;;2048425;28;20681;-53
2021/05/17 03:18:36;;;;;;;28.23;21.98;;;;;;;;;;2049165;29;20182;-50
2021/05/17 03:19:36;;;;;;;27.27;21.23;;;;;;;;;;2048444;29;20667;-50
2021/05/17 03:20:37;;;;;;;25.50;20.52;;;;;;;;;;2049307;29;20308;-55
2021/05/17 03:21:39;;;;;;;22.15;19.48;;;;;;;;;;2057800;28;20232;-53
2021/05/17 03:22:39;;;;;;;24.85;20.67;;;;;;;;;;2057857;28;20194;-52
2021/05/17 03:23:39;;;;;;;24.85;20.17;;;;;;;;;;2057804;28;20231;-52
2021/05/17 03:24:41;;;;;;;22.20;19.52;;;;;;;;;;2057533;28;20182;-51
2021/05/17 03:25:42;;;;;;;24.98;20.63;;;;;;;;;;2057586;28;20574;-54
2021/05/17 03:26:43;;;;;;;29.90;21.50;;;;;;;;;;2057167;28;20290;-51
2021/05/17 03:27:44;;;;;;;24.00;20.63;;;;;;;;;;2057046;28;20178;-55
2021/05/17 03:28:44;;;;;;;25.85;21.17;;;;;;;;;;2057663;28;20174;-53
2021/05/17 03:29:44;;;;;;;27.50;21.08;;;;;;;;;;2057146;28;20194;-52
2021/05/17 03:30:45;;;;;;;26.00;20.45;;;;;;;;;;2057828;28;20177;-52
2021/05/17 03:31:45;;;;;;;23.95;20.58;;;;;;;;;;2057681;28;20174;-50
2021/05/17 03:32:45;;;;;;;25.08;20.15;;;;;;;;;;2057745;28;20202;-50
2021/05/17 03:33:45;;;;;;;26.70;21.70;;;;;;;;;;2057670;28;20190;-53
2021/05/17 03:34:46;;;;;;;25.13;20.90;;;;;;;;;;2057600;28;20240;-54
2021/05/17 03:35:46;;;;;;;28.77;21.67;;;;;;;;;;2057638;28;20206;-50
2021/05/17 03:36:46;;;;;;;31.20;22.02;;;;;;;;;;2057769;28;20536;-52
2021/05/17 03:37:47;;;;;;;27.30;23.05;;;;;;;;;;2057368;28;20238;-50
2021/05/17 03:38:47;;;;;;;26.33;23.17;;;;;;;;;;2057436;28;20206;-56
2021/05/17 03:39:48;;;;;;;25.00;22.35;;;;;;;;;;2056834;28;20181;-50
2021/05/17 03:40:49;;;;;;;28.55;23.90;;;;;;;;;;2059953;28;20174;-50
2021/05/17 03:41:49;;;;;;;27.25;22.95;;;;;;;;;;2058803;28;20190;-56
2021/05/17 03:42:49;;;;;;;24.75;22.05;;;;;;;;;;2059065;28;20293;-58
2021/05/17 03:43:49;;;;;;;26.45;22.67;;;;;;;;;;2058382;28;20194;-56
2021/05/17 03:44:49;;;;;;;25.83;21.85;;;;;;;;;;2058046;28;20611;-54
2021/05/17 03:45:50;;;;;;;29.13;23.20;;;;;;;;;;2053476;28;20182;-59
2021/05/17 03:46:50;;;;;;;29.05;24.00;;;;;;;;;;2050137;28;20657;-50
2021/05/17 03:47:50;;;;;;;28.23;23.90;;;;;;;;;;2049280;29;20250;-52
2021/05/17 03:48:51;;;;;;;28.70;23.90;;;;;;;;;;2049143;28;20177;-52
2021/05/17 03:49:51;;;;;;;25.25;22.52;;;;;;;;;;2052257;28;20531;-54
2021/05/17 03:50:51;;;;;;;27.30;23.00;;;;;;;;;;2056283;28;20273;-51
2021/05/17 03:51:51;;;;;;;29.90;22.85;;;;;;;;;;2056055;28;20265;-47
2021/05/17 03:52:52;;;;;;;27.60;23.65;;;;;;;;;;2050041;28;20211;-53
2021/05/17 03:53:52;;;;;;;29.40;22.38;;;;;;;;;;2049348;28;20364;-49
2021/05/17 03:54:52;;;;;;;27.38;23.27;;;;;;;;;;2056190;28;20269;-50
2021/05/17 03:55:52;;;;;;;26.48;22.35;;;;;;;;;;2057464;28;20213;-49
2021/05/17 03:56:53;;;;;;;26.25;23.48;;;;;;;;;;2055551;28;20186;-51
2021/05/17 03:57:56;;;;;;;27.17;23.08;;;;;;;;;;2055246;28;20575;-52
2021/05/17 03:58:56;;;;;;;26.85;23.02;;;;;;;;;;2055579;28;20636;-48
2021/05/17 03:59:57;;;;;;;28.75;23.63;;;;;;;;;;2056528;28;20180;-50
2021/05/17 04:00:58;;;;;;;25.98;22.65;;;;;;;;;;2056085;28;20256;-53
2021/05/17 04:01:58;;;;;;;27.80;22.23;;;;;;;;;;2056181;28;20206;-52
2021/05/17 04:03:01;;;;;;;29.67;25.42;;;;;;;;;;2056396;28;20190;-51
2021/05/17 04:04:01;;;;;;;27.58;22.67;;;;;;;;;;2056581;28;20229;-50
2021/05/17 04:13:51;;;;;;;31.70;26.00;;;;;;;;;;2051508;28;20249;-51
2021/05/17 04:14:52;;;;;;;26.38;23.05;;;;;;;;;;2056270;28;20233;-51
2021/05/17 04:15:52;;;;;;;27.90;24.85;;;;;;;;;;2055961;28;20249;-53
2021/05/17 04:16:53;;;;;;;27.85;24.85;;;;;;;;;;2064916;28;20209;-51
2021/05/17 04:17:53;;;;;;;29.98;24.85;;;;;;;;;;2064449;28;20169;-50
2021/05/17 04:18:53;;;;;;;28.20;24.25;;;;;;;;;;2064640;28;20665;-52
2021/05/17 04:19:56;;;;;;;29.52;26.33;;;;;;;;;;2064483;28;20732;-50
2021/05/17 04:20:56;;;;;;;30.60;25.38;;;;;;;;;;2056687;28;20177;-50
2021/05/17 04:21:56;;;;;;;29.83;25.63;;;;;;;;;;2056336;28;20214;-51
2021/05/17 04:22:56;;;;;;;28.63;25.10;;;;;;;;;;2065049;28;20220;-51
2021/05/17 04:23:57;;;;;;;30.92;25.27;;;;;;;;;;2056435;28;20174;-52
2021/05/17 04:24:57;;;;;;;28.42;24.48;;;;;;;;;;2056696;28;20174;-52
2021/05/17 04:25:57;;;;;;;30.45;27.15;;;;;;;;;;2065069;28;20180;-50
2021/05/17 04:26:58;;;;;;;27.63;24.50;;;;;;;;;;2065403;28;20252;-50
2021/05/17 04:27:58;;;;;;;27.95;24.05;;;;;;;;;;2064293;28;20172;-51
2021/05/17 04:28:58;;;;;;;28.45;24.33;;;;;;;;;;2065055;28;20196;-52
2021/05/17 04:29:58;;;;;;;27.45;24.60;;;;;;;;;;2065252;28;20177;-50
2021/05/17 04:30:59;;;;;;;32.53;26.05;;;;;;;;;;2062017;28;20659;-52
2021/05/17 04:31:59;;;;;;;28.52;25.42;;;;;;;;;;2056623;28;20185;-52
2021/05/17 04:33:00;;;;;;;31.00;27.45;;;;;;;;;;2057050;28;20233;-50
2021/05/17 04:34:00;;;;;;;30.23;26.58;;;;;;;;;;2056775;28;20186;-50
2021/05/17 04:35:00;;;;;;;31.60;26.30;;;;;;;;;;2050342;28;20265;-50
2021/05/17 04:36:01;;;;;;;30.98;25.45;;;;;;;;;;2048133;28;20166;-50
2021/05/17 04:37:01;;;;;;;30.40;26.48;;;;;;;;;;2054590;28;20181;-50
2021/05/17 04:38:01;;;;;;;31.75;26.80;;;;;;;;;;2064369;28;20236;-50
2021/05/17 04:39:03;;;;;;;35.30;27.98;;;;;;;;;;2056051;28;20170;-52
2021/05/17 04:40:04;;;;;;;33.35;26.90;;;;;;;;;;2056894;28;20230;-53
2021/05/17 04:41:05;;;;;;;30.70;26.38;;;;;;;;;;2064983;28;20236;-52
2021/05/17 04:42:05;;;;;;;31.00;27.05;;;;;;;;;;2055790;28;20297;-50
2021/05/17 04:43:05;;;;;;;37.03;28.02;;;;;;;;;;2055459;28;20659;-49
2021/05/17 04:44:06;;;;;;;31.25;27.10;;;;;;;;;;2064987;28;20260;-52
2021/05/17 04:45:07;;;;;;;34.85;28.77;;;;;;;;;;2065848;28;20173;-50
2021/05/17 04:46:07;;;;;;;34.15;27.63;;;;;;;;;;2065037;28;20209;-50
2021/05/17 04:47:07;;;;;;;36.00;27.75;;;;;;;;;;2065937;28;20231;-50
2021/05/17 04:48:08;;;;;;;35.60;29.42;;;;;;;;;;2062072;28;20178;-51
2021/05/17 04:49:08;;;;;;;37.75;29.52;;;;;;;;;;2061812;28;20172;-54
2021/05/17 04:50:09;;;;;;;37.95;31.23;;;;;;;;;;2065519;28;20174;-52
2021/05/17 04:51:09;;;;;;;36.03;29.30;;;;;;;;;;2065643;28;20194;-50
2021/05/17 04:52:09;;;;;;;40.28;29.35;;;;;;;;;;2065811;28;20252;-53
2021/05/17 04:53:09;;;;;;;36.00;28.65;;;;;;;;;;2065815;28;20209;-52
2021/05/17 04:54:10;;;;;;;35.92;28.55;;;;;;;;;;2064501;28;20748;-51
2021/05/17 04:55:10;;;;;;;34.55;28.50;;;;;;;;;;2058701;28;20641;-49
2021/05/17 04:56:11;;;;;;;34.45;28.55;;;;;;;;;;2057475;28;20249;-54
2021/05/17 04:57:11;;;;;;;31.73;28.13;;;;;;;;;;2053254;28;20681;-52
2021/05/17 04:58:11;;;;;;;36.15;28.15;;;;;;;;;;2062490;28;20214;-52
2021/05/17 04:59:11;;;;;;;36.70;29.33;;;;;;;;;;2065880;28;20628;-50
2021/05/17 05:00:12;;;;;;;30.67;26.60;;;;;;;;;;2064837;28;20666;-50
2021/05/17 05:01:12;;;;;;;34.42;28.50;;;;;;;;;;2061810;28;20578;-51
2021/05/17 05:02:13;;;;;;;31.88;26.70;;;;;;;;;;2058983;28;20577;-52
2021/05/17 05:03:13;;;;;;;31.98;26.77;;;;;;;;;;2064916;28;20194;-52
2021/05/17 05:04:13;;;;;;;33.00;26.73;;;;;;;;;;2064894;28;20260;-50
2021/05/17 05:05:14;;;;;;;32.05;27.45;;;;;;;;;;2064307;28;20243;-51
2021/05/17 05:06:14;;;;;;;31.08;26.45;;;;;;;;;;2055868;28;20174;-51
2021/05/17 05:07:15;;;;;;;29.27;24.75;;;;;;;;;;2059089;28;20376;-50
2021/05/17 05:08:15;;;;;;;28.83;25.33;;;;;;;;;;2064497;28;20257;-50
2021/05/17 05:09:16;;;;;;;32.35;25.85;;;;;;;;;;2065086;28;20166;-52
2021/05/17 05:10:16;;;;;;;28.58;24.60;;;;;;;;;;2065290;28;20177;-51
2021/05/17 05:11:17;;;;;;;26.13;23.17;;;;;;;;;;2065021;28;20628;-51
2021/05/17 05:12:18;;;;;;;23.83;21.33;;;;;;;;;;2065144;28;20169;-52
2021/05/17 05:13:18;;;;;;;29.00;23.30;;;;;;;;;;2060635;28;20687;-50
2021/05/17 05:14:18;;;;;;;25.40;22.73;;;;;;;;;;2054158;28;20449;-53
2021/05/17 05:15:18;;;;;;;25.77;22.92;;;;;;;;;;2057567;28;20209;-52
2021/05/17 05:16:19;;;;;;;26.73;22.48;;;;;;;;;;2056312;28;20554;-51
2021/05/17 05:17:19;;;;;;;25.55;22.00;;;;;;;;;;2052700;28;20170;-49
2021/05/17 05:18:19;;;;;;;31.33;23.33;;;;;;;;;;2051497;28;20795;-50
2021/05/17 05:19:21;;;;;;;25.13;22.35;;;;;;;;;;2056453;28;20228;-51
2021/05/17 05:20:21;;;;;;;25.95;21.80;;;;;;;;;;2056528;28;20179;-51
2021/05/17 05:21:22;;;;;;;22.17;19.88;;;;;;;;;;2063011;28;20173;-51
2021/05/17 05:22:24;;;;;;;22.63;20.33;;;;;;;;;;2063875;28;20558;-53
2021/05/17 05:23:24;;;;;;;25.67;21.95;;;;;;;;;;2063311;28;20186;-52
2021/05/17 05:24:24;;;;;;;24.70;21.63;;;;;;;;;;2059465;28;20668;-54
2021/05/17 05:25:29;;;;;;;23.48;20.77;;;;;;;;;;2061470;28;20189;-56
2021/05/17 05:26:48;;;;;;;24.90;20.90;;;;;;;;;;2063279;28;20169;-54
2021/05/17 05:27:52;;;;;;;23.73;21.25;;;;;;;;;;2057213;28;20269;-54
2021/05/17 05:29:12;;;;;;;23.88;20.65;;;;;;;;;;2055514;28;20174;-54
2021/05/17 05:30:23;;;;;;;22.35;20.17;;;;;;;;;;2054216;28;20182;-56
2021/05/17 05:31:35;;;;;;;25.10;21.75;;;;;;;;;;2062580;28;20170;-55
2021/05/17 05:32:46;;;;;;;23.27;20.77;;;;;;;;;;2063765;28;20170;-59
2021/05/17 05:33:46;;;;;;;22.95;20.60;;;;;;;;;;2061833;28;20177;-50
2021/05/17 05:34:47;;;;;;;24.20;20.83;;;;;;;;;;2065244;28;20185;-50
2021/05/17 05:35:47;;;;;;;23.40;20.90;;;;;;;;;;2053592;28;20175;-55
2021/05/17 05:36:48;;;;;;;23.08;20.58;;;;;;;;;;2056971;28;20675;-55
2021/05/17 05:37:48;;;;;;;24.00;21.60;;;;;;;;;;2057768;28;20177;-55
2021/05/17 05:38:48;;;;;;;22.67;20.40;;;;;;;;;;2057327;28;20182;-55
2021/05/17 05:39:48;;;;;;;22.27;19.90;;;;;;;;;;2066978;28;20271;-55
2021/05/17 05:40:49;;;;;;;24.30;21.70;;;;;;;;;;2058137;28;20633;-56
2021/05/17 05:41:49;;;;;;;24.05;21.45;;;;;;;;;;2050944;28;20261;-55
2021/05/17 05:42:49;;;;;;;22.45;20.13;;;;;;;;;;2054897;28;20162;-56
2021/05/17 05:43:49;;;;;;;24.80;22.20;;;;;;;;;;2067519;28;20181;-56
2021/05/17 05:44:50;;;;;;;25.70;21.38;;;;;;;;;;2064499;28;20178;-56
2021/05/17 05:45:51;;;;;;;24.15;21.60;;;;;;;;;;2065443;28;20175;-56
2021/05/17 05:46:51;;;;;;;23.63;20.67;;;;;;;;;;2063069;28;20193;-56
2021/05/17 05:47:51;;;;;;;23.73;21.23;;;;;;;;;;2060023;28;20173;-52
2021/05/17 05:48:52;;;;;;;23.52;21.13;;;;;;;;;;2064220;28;20225;-56
2021/05/17 05:49:52;;;;;;;22.67;20.33;;;;;;;;;;2067544;28;20537;-56
2021/05/17 05:50:52;;;;;;;24.15;21.40;;;;;;;;;;2066794;28;20174;-53
2021/05/17 05:51:52;;;;;;;25.20;22.65;;;;;;;;;;2063039;28;20589;-56
2021/05/17 05:52:53;;;;;;;23.88;21.38;;;;;;;;;;2063355;28;20194;-54
2021/05/17 05:53:53;;;;;;;24.67;22.08;;;;;;;;;;2058647;28;20182;-56
2021/05/17 05:54:53;;;;;;;24.30;21.70;;;;;;;;;;2065758;28;20178;-56
2021/05/17 05:55:54;;;;;;;22.77;20.38;;;;;;;;;;2073168;28;20183;-57
2021/05/17 05:56:54;;;;;;;24.45;21.50;;;;;;;;;;2065924;28;20543;-57
2021/05/17 05:57:56;;;;;;;27.30;23.38;;;;;;;;;;2056613;28;20213;-58
2021/05/17 05:58:56;;;;;;;28.50;22.88;;;;;;;;;;2059008;28;20182;-55
2021/05/17 05:59:57;;;;;;;27.23;23.38;;;;;;;;;;2055516;28;20550;-56
2021/05/17 06:00:57;;;;;;;25.42;22.73;;;;;;;;;;2050988;28;20227;-58
2021/05/17 06:01:57;;;;;;;25.75;22.40;;;;;;;;;;2064636;28;20209;-51
2021/05/17 06:02:58;;;;;;;27.90;23.45;;;;;;;;;;2064309;28;20177;-57
2021/05/17 06:03:58;;;;;;;29.73;24.52;;;;;;;;;;2055495;28;20171;-54
2021/05/17 06:04:58;;;;;;;26.60;23.23;;;;;;;;;;2054278;28;20182;-53
2021/05/17 06:05:59;;;;;;;29.95;25.00;;;;;;;;;;2062692;28;20639;-56
2021/05/17 06:06:59;;;;;;;31.90;25.55;;;;;;;;;;2063148;28;20224;-58
2021/05/17 06:08:01;;;;;;;33.15;26.52;;;;;;;;;;2063862;28;20248;-53
2021/05/17 06:09:01;;;;;;;31.83;26.17;;;;;;;;;;2063866;28;20791;-54